createdAt,value
2023-02-14T00:01:35.228Z,2.60
2023-02-14T00:04:04.131Z,2.50
2023-02-14T00:06:35.184Z,2.50
2023-02-14T00:09:03.475Z,2.40
2023-02-14T00:11:31.442Z,2.40
2023-02-14T00:14:18.482Z,2.40
2023-02-14T00:16:46.512Z,2.50
2023-02-14T00:19:16.382Z,2.50
2023-02-14T00:21:44.762Z,2.60
2023-02-14T00:24:15.436Z,2.60
2023-02-14T00:26:43.559Z,2.60
2023-02-14T00:29:17.768Z,2.60
2023-02-14T00:31:46.134Z,2.60
2023-02-14T00:34:15.997Z,2.60
2023-02-14T00:36:44.845Z,2.60
2023-02-14T00:39:15.241Z,2.60
2023-02-14T00:41:43.643Z,2.70
2023-02-14T00:44:14.436Z,2.60
2023-02-14T00:46:42.719Z,2.70
2023-02-14T00:49:11.082Z,2.70
2023-02-14T00:51:39.571Z,2.60
2023-02-14T00:54:07.698Z,2.60
2023-02-14T00:56:35.716Z,2.60
2023-02-14T00:59:03.799Z,2.60
2023-02-14T01:01:33.158Z,2.50
2023-02-14T01:04:01.165Z,2.40
2023-02-14T01:06:29.454Z,2.40
2023-02-14T01:08:58.527Z,2.30
2023-02-14T01:11:28.677Z,2.20
2023-02-14T01:13:59.120Z,2.20
2023-02-14T01:16:28.823Z,2.10
2023-02-14T01:19:00.208Z,2.10
2023-02-14T01:21:30.145Z,2.00
2023-02-14T01:24:00.050Z,2.00
2023-02-14T01:26:28.858Z,2.00
2023-02-14T01:28:57.115Z,2.00
2023-02-14T01:31:27.168Z,2.10
2023-02-14T01:33:59.886Z,2.10
2023-02-14T01:36:34.805Z,2.20
2023-02-14T01:39:04.951Z,2.20
2023-02-14T01:41:36.628Z,2.20
2023-02-14T01:44:07.902Z,2.20
2023-02-14T01:46:37.512Z,2.20
2023-02-14T01:49:14.569Z,2.20
2023-02-14T01:51:47.183Z,2.20
2023-02-14T01:54:16.025Z,2.20
2023-02-14T01:56:52.259Z,2.20
2023-02-14T01:59:24.359Z,2.20
2023-02-14T02:01:54.035Z,2.20
2023-02-14T02:04:27.374Z,2.20
2023-02-14T02:07:00.944Z,2.20
2023-02-14T02:09:34.880Z,2.10
2023-02-14T02:12:03.268Z,2.20
2023-02-14T02:14:32.338Z,2.20
2023-02-14T02:17:18.215Z,2.30
2023-02-14T02:20:16.218Z,2.30
2023-02-14T02:23:35.212Z,2.30
2023-02-14T02:26:45.940Z,2.30
2023-02-14T02:29:46.670Z,2.30
2023-02-14T02:32:42.192Z,2.30
2023-02-14T02:35:25.749Z,2.30
2023-02-14T02:38:06.442Z,2.30
2023-02-14T02:40:47.710Z,2.30
2023-02-14T02:43:28.691Z,2.30
2023-02-14T02:46:22.837Z,2.30
2023-02-14T02:48:58.323Z,2.30
2023-02-14T02:51:55.327Z,2.30
2023-02-14T02:54:31.254Z,2.20
2023-02-14T02:57:01.828Z,2.20
2023-02-14T02:59:32.220Z,2.20
2023-02-14T03:02:07.748Z,2.10
2023-02-14T03:04:56.035Z,2.10
2023-02-14T03:07:39.303Z,2.00
2023-02-14T03:10:14.418Z,2.00
2023-02-14T03:13:07.957Z,1.90
2023-02-14T03:16:15.806Z,1.80
2023-02-14T03:19:12.957Z,1.80
2023-02-14T03:21:48.046Z,1.80
2023-02-14T03:24:26.012Z,1.90
2023-02-14T03:27:02.607Z,1.90
2023-02-14T03:29:39.595Z,1.90
2023-02-14T03:32:15.515Z,2.00
2023-02-14T03:34:54.074Z,2.00
2023-02-14T03:37:27.395Z,2.00
2023-02-14T03:40:07.090Z,2.00
2023-02-14T03:42:39.211Z,2.00
2023-02-14T03:45:11.925Z,2.00
2023-02-14T03:47:43.269Z,2.00
2023-02-14T03:50:16.152Z,2.00
2023-02-14T03:52:47.110Z,2.00
2023-02-14T03:55:20.883Z,2.00
2023-02-14T03:57:54.801Z,1.90
2023-02-14T04:00:23.337Z,1.80
2023-02-14T04:02:57.026Z,1.80
2023-02-14T04:05:28.311Z,1.70
2023-02-14T04:07:57.891Z,1.70
2023-02-14T04:10:30.358Z,1.70
2023-02-14T04:12:58.318Z,1.60
2023-02-14T04:15:26.226Z,1.50
2023-02-14T04:18:25.961Z,1.50
2023-02-14T04:20:53.898Z,1.40
2023-02-14T04:23:21.909Z,1.30
2023-02-14T04:25:51.381Z,1.30
2023-02-14T04:28:19.319Z,1.30
2023-02-14T04:30:47.343Z,1.20
2023-02-14T04:33:15.513Z,1.20
2023-02-14T04:35:43.433Z,1.10
2023-02-14T04:38:11.420Z,1.10
2023-02-14T04:40:40.731Z,1.00
2023-02-14T04:43:10.007Z,1.00
2023-02-14T04:45:37.998Z,0.90
2023-02-14T04:48:05.983Z,0.90
2023-02-14T04:50:34.087Z,0.90
2023-02-14T04:53:02.037Z,0.90
2023-02-14T04:55:30.047Z,0.90
2023-02-14T04:57:58.008Z,0.90
2023-02-14T05:00:27.630Z,0.90
2023-02-14T05:02:55.648Z,0.90
2023-02-14T05:05:23.585Z,0.80
2023-02-14T05:07:51.653Z,0.80
2023-02-14T05:10:19.861Z,0.80
2023-02-14T05:12:47.806Z,0.70
2023-02-14T05:15:16.480Z,0.70
2023-02-14T05:17:45.800Z,0.70
2023-02-14T05:20:13.894Z,0.60
2023-02-14T05:22:41.806Z,0.60
2023-02-14T05:25:10.222Z,0.50
2023-02-14T05:27:38.146Z,0.50
2023-02-14T05:30:07.321Z,0.60
2023-02-14T05:32:35.197Z,0.60
2023-02-14T05:35:04.923Z,0.50
2023-02-14T05:37:33.031Z,0.50
2023-02-14T05:40:00.920Z,0.50
2023-02-14T05:42:28.828Z,0.50
2023-02-14T05:44:56.756Z,0.50
2023-02-14T05:47:24.625Z,0.60
2023-02-14T05:49:52.578Z,0.60
2023-02-14T05:52:22.134Z,0.60
2023-02-14T05:54:50.148Z,0.60
2023-02-14T05:57:18.243Z,0.70
2023-02-14T05:59:46.237Z,0.70
2023-02-14T06:02:15.838Z,0.70
2023-02-14T06:04:43.895Z,0.70
2023-02-14T06:07:11.835Z,0.60
2023-02-14T06:09:41.173Z,0.60
2023-02-14T06:12:09.250Z,0.60
2023-02-14T06:14:37.339Z,0.60
2023-02-14T06:17:05.289Z,0.60
2023-02-14T06:19:33.466Z,0.60
2023-02-14T06:22:01.456Z,0.60
2023-02-14T06:24:29.410Z,0.60
2023-02-14T06:27:00.580Z,0.60
2023-02-14T06:29:28.713Z,0.50
2023-02-14T06:31:56.747Z,0.50
2023-02-14T06:34:24.725Z,0.40
2023-02-14T06:36:52.657Z,0.50
2023-02-14T06:39:21.476Z,0.50
2023-02-14T06:41:49.419Z,0.60
2023-02-14T06:44:18.767Z,0.70
2023-02-14T06:46:46.931Z,0.70
2023-02-14T06:49:14.999Z,0.80
2023-02-14T06:51:42.924Z,0.80
2023-02-14T06:54:10.899Z,0.80
2023-02-14T06:56:38.838Z,0.80
2023-02-14T06:59:06.832Z,0.80
2023-02-14T07:01:36.109Z,0.80
2023-02-14T07:04:04.111Z,0.80
2023-02-14T07:06:32.159Z,0.80
2023-02-14T07:09:00.392Z,0.90
2023-02-14T07:11:28.579Z,0.90
2023-02-14T07:13:56.515Z,0.90
2023-02-14T07:16:24.647Z,1.60
2023-02-14T07:18:54.192Z,0.90
2023-02-14T07:21:22.204Z,0.90
2023-02-14T07:23:50.200Z,0.90
2023-02-14T07:26:18.969Z,1.00
2023-02-14T07:28:48.989Z,1.00
2023-02-14T07:31:17.224Z,1.00
2023-02-14T07:33:45.493Z,1.00
2023-02-14T07:36:15.788Z,1.00
2023-02-14T07:38:43.845Z,1.00
2023-02-14T07:41:11.802Z,1.10
2023-02-14T07:43:39.955Z,1.10
2023-02-14T07:46:08.490Z,1.10
2023-02-14T07:48:36.480Z,1.10
2023-02-14T07:51:04.751Z,1.10
2023-02-14T07:53:34.165Z,1.20
2023-02-14T07:56:02.201Z,1.20
2023-02-14T07:58:30.216Z,1.30
2023-02-14T08:00:58.564Z,1.30
2023-02-14T08:03:26.920Z,1.40
2023-02-14T08:05:57.928Z,1.40
2023-02-14T08:08:27.550Z,1.40
2023-02-14T08:10:57.022Z,1.40
2023-02-14T08:13:24.070Z,1.40
2023-02-14T08:16:07.567Z,1.50
2023-02-14T08:18:37.925Z,1.50
2023-02-14T08:21:07.079Z,1.60
2023-02-14T08:23:35.115Z,1.60
2023-02-14T08:26:05.454Z,1.70
2023-02-14T08:28:34.858Z,1.70
2023-02-14T08:31:03.659Z,1.70
2023-02-14T08:33:32.060Z,1.80
2023-02-14T08:36:00.157Z,1.80
2023-02-14T08:38:28.081Z,1.90
2023-02-14T08:40:56.395Z,1.90
2023-02-14T08:43:26.320Z,1.90
2023-02-14T08:45:54.733Z,2.00
2023-02-14T08:48:23.488Z,2.00
2023-02-14T08:50:51.463Z,2.10
2023-02-14T08:53:22.045Z,2.10
2023-02-14T08:55:50.153Z,2.10
2023-02-14T08:58:18.417Z,2.10
2023-02-14T09:00:47.786Z,2.20
2023-02-14T09:03:15.884Z,2.20
2023-02-14T09:05:43.836Z,2.30
2023-02-14T09:08:11.792Z,2.40
2023-02-14T09:10:39.963Z,2.40
2023-02-14T09:13:08.180Z,2.40
2023-02-14T09:15:36.148Z,2.50
2023-02-14T09:18:06.060Z,2.50
2023-02-14T09:20:34.106Z,2.50
2023-02-14T09:23:02.081Z,2.60
2023-02-14T09:25:30.183Z,2.60
2023-02-14T09:27:58.210Z,2.70
2023-02-14T09:30:26.233Z,2.60
2023-02-14T09:32:54.834Z,2.60
2023-02-14T09:35:26.445Z,2.60
2023-02-14T09:37:57.434Z,2.70
2023-02-14T09:40:26.451Z,2.70
2023-02-14T09:43:04.147Z,2.70
2023-02-14T09:45:34.120Z,2.70
2023-02-14T09:48:06.851Z,2.80
2023-02-14T09:50:43.267Z,2.90
2023-02-14T09:53:22.718Z,2.90
2023-02-14T09:55:56.965Z,3.10
2023-02-14T09:58:32.290Z,3.10
2023-02-14T10:01:09.566Z,3.20
2023-02-14T10:04:12.592Z,3.30
2023-02-14T10:06:49.169Z,3.40
2023-02-14T10:09:31.216Z,3.50
2023-02-14T10:12:01.818Z,3.60
2023-02-14T10:14:36.467Z,3.70
2023-02-14T10:17:10.795Z,3.80
2023-02-14T10:19:42.763Z,3.90
2023-02-14T10:22:16.415Z,3.90
2023-02-14T10:24:49.708Z,4.10
2023-02-14T10:27:30.842Z,4.10
2023-02-14T10:29:59.242Z,4.10
2023-02-14T10:32:31.834Z,4.20
2023-02-14T10:35:05.339Z,4.20
2023-02-14T10:37:50.359Z,4.20
2023-02-14T10:40:40.430Z,4.30
2023-02-14T10:43:19.993Z,4.30
2023-02-14T10:45:54.865Z,4.40
2023-02-14T10:48:29.737Z,4.40
2023-02-14T10:51:04.784Z,4.50
2023-02-14T10:53:46.395Z,4.60
2023-02-14T10:56:20.046Z,4.60
2023-02-14T10:58:51.549Z,4.60
2023-02-14T11:01:20.080Z,4.70
2023-02-14T11:03:54.397Z,4.70
2023-02-14T11:06:22.732Z,4.80
2023-02-14T11:08:52.295Z,4.80
2023-02-14T11:11:25.354Z,4.90
2023-02-14T11:13:53.551Z,4.90
2023-02-14T11:16:32.408Z,5.00
2023-02-14T11:19:19.533Z,5.10
2023-02-14T11:21:50.487Z,5.20
2023-02-14T11:24:26.378Z,5.20
2023-02-14T11:26:56.982Z,5.30
2023-02-14T11:29:29.872Z,5.30
2023-02-14T11:31:58.944Z,5.30
2023-02-14T11:34:36.612Z,5.40
2023-02-14T11:37:07.424Z,5.50
2023-02-14T11:39:37.091Z,5.60
2023-02-14T11:42:06.813Z,5.60
2023-02-14T11:44:37.251Z,5.70
2023-02-14T11:47:20.465Z,5.70
2023-02-14T11:49:57.841Z,5.80
2023-02-14T11:52:29.910Z,5.90
2023-02-14T11:54:59.918Z,5.90
2023-02-14T11:57:33.072Z,6.00
2023-02-14T12:00:04.960Z,6.10
2023-02-14T12:02:42.642Z,6.20
2023-02-14T12:05:20.406Z,6.30
2023-02-14T12:07:51.162Z,6.40
2023-02-14T12:10:24.738Z,6.40
2023-02-14T12:12:56.249Z,6.50
2023-02-14T12:15:36.591Z,6.70
2023-02-14T12:18:39.203Z,6.70
2023-02-14T12:21:37.421Z,6.80
2023-02-14T12:24:14.305Z,6.90
2023-02-14T12:26:49.483Z,6.90
2023-02-14T12:29:26.210Z,7.00
2023-02-14T12:31:57.296Z,7.10
2023-02-14T12:34:25.387Z,7.20
2023-02-14T12:37:09.069Z,7.20
2023-02-14T12:39:42.456Z,7.30
2023-02-14T12:42:26.235Z,7.30
2023-02-14T12:45:03.479Z,7.30
2023-02-14T12:47:45.340Z,7.40
2023-02-14T12:50:24.502Z,7.40
2023-02-14T12:53:28.633Z,7.50
2023-02-14T12:56:07.506Z,7.60
2023-02-14T12:58:47.564Z,7.60
2023-02-14T13:01:38.835Z,7.70
2023-02-14T13:04:47.089Z,7.70
2023-02-14T13:07:27.764Z,7.90
2023-02-14T13:10:02.334Z,7.90
2023-02-14T13:12:37.263Z,8.00
2023-02-14T13:15:18.981Z,8.00
2023-02-14T13:17:53.531Z,8.00
2023-02-14T13:20:42.733Z,8.00
2023-02-14T13:23:15.348Z,8.00
2023-02-14T13:25:49.908Z,8.10
2023-02-14T13:28:20.030Z,8.10
2023-02-14T13:30:49.405Z,8.10
2023-02-14T13:33:35.035Z,8.20
2023-02-14T13:36:07.996Z,8.20
2023-02-14T13:38:44.032Z,8.20
2023-02-14T13:41:13.397Z,8.30
2023-02-14T13:43:52.930Z,8.30
2023-02-14T13:46:38.882Z,8.40
2023-02-14T13:49:30.485Z,8.50
2023-02-14T13:52:01.155Z,8.50
2023-02-14T13:54:35.709Z,8.60
2023-02-14T13:57:24.322Z,8.60
2023-02-14T14:00:25.305Z,8.60
2023-02-14T14:02:55.564Z,8.70
2023-02-14T14:06:00.279Z,8.70
2023-02-14T14:08:49.470Z,8.70
2023-02-14T14:11:57.473Z,8.70
2023-02-14T14:14:39.995Z,8.70
2023-02-14T14:17:26.124Z,8.70
2023-02-14T14:19:57.805Z,8.70
2023-02-14T14:22:26.690Z,8.70
2023-02-14T14:25:00.588Z,8.70
2023-02-14T14:27:32.972Z,8.70
2023-02-14T14:30:02.818Z,8.80
2023-02-14T14:32:32.690Z,8.80
2023-02-14T14:35:03.958Z,8.90
2023-02-14T14:37:34.183Z,8.90
2023-02-14T14:40:04.862Z,8.90
2023-02-14T14:42:37.372Z,8.90
2023-02-14T14:45:08.863Z,8.90
2023-02-14T14:47:42.719Z,8.90
2023-02-14T14:50:17.960Z,9.00
2023-02-14T14:52:49.461Z,9.00
2023-02-14T14:55:21.194Z,9.00
2023-02-14T14:57:54.464Z,9.00
2023-02-14T15:00:28.542Z,9.00
2023-02-14T15:02:58.753Z,9.00
2023-02-14T15:05:30.256Z,9.00
2023-02-14T15:07:59.023Z,9.10
2023-02-14T15:10:29.886Z,9.10
2023-02-14T15:13:17.272Z,9.10
2023-02-14T15:15:50.767Z,9.10
2023-02-14T15:18:21.678Z,9.10
2023-02-14T15:20:52.038Z,9.10
2023-02-14T15:23:23.050Z,9.10
2023-02-14T15:25:52.340Z,9.00
2023-02-14T15:28:31.023Z,9.00
2023-02-14T15:31:02.590Z,9.00
2023-02-14T15:33:33.275Z,9.00
2023-02-14T15:36:06.628Z,9.00
2023-02-14T15:38:38.734Z,9.00
2023-02-14T15:41:07.404Z,9.00
2023-02-14T15:43:39.352Z,8.90
2023-02-14T15:46:21.267Z,8.90
2023-02-14T15:48:49.387Z,8.90
2023-02-14T15:51:22.101Z,8.80
2023-02-14T15:53:53.663Z,8.80
2023-02-14T15:56:25.124Z,8.70
2023-02-14T15:59:00.697Z,8.70
2023-02-14T16:01:29.655Z,8.60
2023-02-14T16:04:00.985Z,8.60
2023-02-14T16:06:39.733Z,8.60
2023-02-14T16:09:23.545Z,8.50
2023-02-14T16:11:52.649Z,8.50
2023-02-14T16:14:32.173Z,8.30
2023-02-14T16:17:02.616Z,8.30
2023-02-14T16:19:39.325Z,8.20
2023-02-14T16:22:10.337Z,8.10
2023-02-14T16:24:38.364Z,8.10
2023-02-14T16:27:07.890Z,8.00
2023-02-14T16:29:37.757Z,7.90
2023-02-14T16:32:17.000Z,7.80
2023-02-14T16:34:47.064Z,7.70
2023-02-14T16:37:22.647Z,7.60
2023-02-14T16:39:52.154Z,7.50
2023-02-14T16:42:20.568Z,7.40
2023-02-14T16:44:49.671Z,7.30
2023-02-14T16:47:19.384Z,7.20
2023-02-14T16:49:47.797Z,7.10
2023-02-14T16:52:18.839Z,7.00
2023-02-14T16:54:49.751Z,6.90
2023-02-14T16:57:21.578Z,6.80
2023-02-14T16:59:50.886Z,6.70
2023-02-14T17:02:19.610Z,6.60
2023-02-14T17:04:47.826Z,6.40
2023-02-14T17:07:17.049Z,6.30
2023-02-14T17:09:48.541Z,6.20
2023-02-14T17:12:21.931Z,6.10
2023-02-14T17:14:55.643Z,6.10
2023-02-14T17:17:23.736Z,6.00
2023-02-14T17:19:52.901Z,5.90
2023-02-14T17:22:21.318Z,5.80
2023-02-14T17:24:49.281Z,5.70
2023-02-14T17:27:18.600Z,5.70
2023-02-14T17:29:46.554Z,5.60
2023-02-14T17:32:14.976Z,5.50
2023-02-14T17:34:43.041Z,5.40
2023-02-14T17:37:10.991Z,5.40
2023-02-14T17:39:38.990Z,5.30
2023-02-14T17:42:07.239Z,5.20
2023-02-14T17:44:37.523Z,5.10
2023-02-14T17:47:09.045Z,5.00
2023-02-14T17:49:38.253Z,5.00
2023-02-14T17:52:06.944Z,4.90
2023-02-14T17:54:38.066Z,4.80
2023-02-14T17:57:06.101Z,4.80
2023-02-14T17:59:36.551Z,4.70
2023-02-14T18:02:04.751Z,4.70
2023-02-14T18:04:34.879Z,4.60
2023-02-14T18:07:03.087Z,4.50
2023-02-14T18:09:31.451Z,4.40
2023-02-14T18:11:59.645Z,4.30
2023-02-14T18:14:27.780Z,4.20
2023-02-14T18:16:57.115Z,4.00
2023-02-14T18:19:25.202Z,3.90
2023-02-14T18:21:53.424Z,3.80
2023-02-14T18:24:21.678Z,3.60
2023-02-14T18:26:49.657Z,3.50
2023-02-14T18:29:18.036Z,3.40
2023-02-14T18:31:46.647Z,3.30
2023-02-14T18:34:15.967Z,3.20
2023-02-14T18:36:43.894Z,3.10
2023-02-14T18:39:12.319Z,3.00
2023-02-14T18:41:40.326Z,2.90
2023-02-14T18:44:08.307Z,2.80
2023-02-14T18:46:37.407Z,2.80
2023-02-14T18:49:08.364Z,2.70
2023-02-14T18:51:39.638Z,2.60
2023-02-14T18:54:08.209Z,2.60
2023-02-14T18:56:38.132Z,2.50
2023-02-14T18:59:08.914Z,2.50
2023-02-14T19:01:39.729Z,2.40
2023-02-14T19:04:11.935Z,2.40
2023-02-14T19:06:42.659Z,2.40
2023-02-14T19:09:12.793Z,2.40
2023-02-14T19:11:41.223Z,2.40
2023-02-14T19:14:13.419Z,2.50
2023-02-14T19:16:50.143Z,2.50
2023-02-14T19:19:18.742Z,2.50
2023-02-14T19:21:48.597Z,2.60
2023-02-14T19:24:17.876Z,2.50
2023-02-14T19:26:46.707Z,2.50
2023-02-14T19:29:16.421Z,2.50
2023-02-14T19:31:48.259Z,2.50
2023-02-14T19:34:18.174Z,2.50
2023-02-14T19:36:48.220Z,2.50
2023-02-14T19:39:16.747Z,2.50
2023-02-14T19:41:44.731Z,2.50
2023-02-14T19:44:14.784Z,2.50
2023-02-14T19:46:46.012Z,2.50
2023-02-14T19:49:15.133Z,2.40
2023-02-14T19:51:43.565Z,2.40
2023-02-14T19:54:13.484Z,2.40
2023-02-14T19:56:43.707Z,2.40
2023-02-14T19:59:15.182Z,2.40
2023-02-14T20:01:46.257Z,2.40
2023-02-14T20:04:16.169Z,2.40
2023-02-14T20:06:45.644Z,2.40
2023-02-14T20:09:15.588Z,2.40
2023-02-14T20:11:50.173Z,2.30
2023-02-14T20:14:19.043Z,2.40
2023-02-14T20:16:48.319Z,2.40
2023-02-14T20:19:18.382Z,2.40
2023-02-14T20:21:50.238Z,2.40
2023-02-14T20:24:21.200Z,2.40
2023-02-14T20:26:50.169Z,2.40
2023-02-14T20:29:18.877Z,2.40
2023-02-14T20:31:48.790Z,2.40
2023-02-14T20:34:17.206Z,2.40
2023-02-14T20:36:49.524Z,2.40
2023-02-14T20:39:18.994Z,2.30
2023-02-14T20:41:49.860Z,2.40
2023-02-14T20:44:21.634Z,2.40
2023-02-14T20:46:51.742Z,2.40
2023-02-14T20:49:20.821Z,2.30
2023-02-14T20:51:50.715Z,2.30
2023-02-14T20:54:21.220Z,2.30
2023-02-14T20:56:50.860Z,2.30
2023-02-14T20:59:24.230Z,2.30
2023-02-14T21:01:52.540Z,2.20
2023-02-14T21:04:20.529Z,2.20
2023-02-14T21:06:49.235Z,2.30
2023-02-14T21:09:20.700Z,2.20
2023-02-14T21:11:49.585Z,2.20
2023-02-14T21:14:18.124Z,2.20
2023-02-14T21:16:46.228Z,2.20
2023-02-14T21:19:14.441Z,2.20
2023-02-14T21:21:42.647Z,2.20
2023-02-14T21:24:12.293Z,2.10
2023-02-14T21:26:42.445Z,2.10
2023-02-14T21:29:11.157Z,2.20
2023-02-14T21:31:39.478Z,2.20
2023-02-14T21:34:07.740Z,2.10
2023-02-14T21:36:36.580Z,2.10
2023-02-14T21:39:08.222Z,2.10
2023-02-14T21:41:37.409Z,2.10
2023-02-14T21:44:07.243Z,2.10
2023-02-14T21:46:39.402Z,2.10
2023-02-14T21:49:25.376Z,2.10
2023-02-14T21:51:53.592Z,2.10
2023-02-14T21:54:21.623Z,2.00
2023-02-14T21:56:50.206Z,2.00
2023-02-14T21:59:19.530Z,2.00
2023-02-14T22:01:47.549Z,2.00
2023-02-14T22:04:15.593Z,2.10
2023-02-14T22:06:44.308Z,2.00
2023-02-14T22:09:17.541Z,1.90
2023-02-14T22:11:47.445Z,2.00
2023-02-14T22:14:15.817Z,2.00
2023-02-14T22:16:45.174Z,2.00
2023-02-14T22:19:15.208Z,2.00
2023-02-14T22:21:44.282Z,2.00
2023-02-14T22:24:12.549Z,2.00
2023-02-14T22:26:41.442Z,2.00
2023-02-14T22:29:11.209Z,2.00
2023-02-14T22:31:41.317Z,1.90
2023-02-14T22:34:12.467Z,1.90
2023-02-14T22:36:40.790Z,1.90
2023-02-14T22:39:09.425Z,1.80
2023-02-14T22:41:38.359Z,1.80
2023-02-14T22:44:07.216Z,1.80
2023-02-14T22:46:37.607Z,1.80
2023-02-14T22:49:06.368Z,1.80
2023-02-14T22:51:37.133Z,1.80
2023-02-14T22:54:07.491Z,1.80
2023-02-14T22:56:38.638Z,1.80
2023-02-14T22:59:08.408Z,1.80
2023-02-14T23:01:36.848Z,1.80
2023-02-14T23:04:05.558Z,1.80
2023-02-14T23:06:36.890Z,1.80
2023-02-14T23:09:06.332Z,1.70
2023-02-14T23:11:35.926Z,1.70
2023-02-14T23:14:33.229Z,1.70
2023-02-14T23:17:19.165Z,1.70
2023-02-14T23:20:05.266Z,1.60
2023-02-14T23:22:38.325Z,1.70
2023-02-14T23:25:09.508Z,1.60
2023-02-14T23:27:40.719Z,1.70
2023-02-14T23:30:11.971Z,1.70
2023-02-14T23:32:40.215Z,1.60
2023-02-14T23:35:08.402Z,1.60
2023-02-14T23:37:38.299Z,1.60
2023-02-14T23:40:07.345Z,1.60
2023-02-14T23:42:35.275Z,1.60
2023-02-14T23:45:17.173Z,1.60
2023-02-14T23:47:45.181Z,1.60
2023-02-14T23:50:13.408Z,1.50
2023-02-14T23:52:44.366Z,1.50
2023-02-14T23:55:12.738Z,1.40
2023-02-14T23:57:40.756Z,1.50
